Time;durP1;ratioP1;P1;durP2;ratioP2;P2;SDS_P1;SDS_P2;PMS_P1;PMS_P2;Temp;Humidity;BMP_temperature;BMP_pressure;BME280_temperature;BME280_humidity;BME280_pressure;Samples;Min_cycle;Max_cycle;Signal;HPM_P1;HPM_P2
2022/04/16 00:00:58;;;;;;;2.87;2.57;;;16.40;95.60;;;16.82;47.53;102502.25;4918948;28;97279;-59
2022/04/16 00:03:37;;;;;;;2.63;2.43;;;16.40;95.50;;;16.83;47.48;102498.66;4862544;28;98190;-60
2022/04/16 00:06:03;;;;;;;2.60;2.40;;;16.40;95.70;;;16.78;47.54;102500.63;4941556;28;96997;-58
2022/04/16 00:08:30;;;;;;;3.10;2.80;;;16.30;95.70;;;16.79;47.60;102507.69;4928421;28;98869;-60
2022/04/16 00:10:56;;;;;;;2.60;2.40;;;16.30;95.20;;;16.79;47.46;102496.16;4949267;28;97859;-60
2022/04/16 00:13:24;;;;;;;2.70;2.50;;;16.30;95.90;;;16.79;47.60;102502.34;4930734;28;98072;-58
2022/04/16 00:15:52;;;;;;;2.70;2.50;;;16.40;95.50;;;16.81;47.64;102496.97;4914342;28;98886;-60
2022/04/16 00:18:19;;;;;;;2.60;2.40;;;16.40;95.40;;;16.83;47.43;102490.66;4929121;28;97425;-60
2022/04/16 00:20:47;;;;;;;3.63;3.33;;;16.50;95.70;;;16.86;47.14;102490.56;4934917;28;97401;-59
2022/04/16 00:23:12;;;;;;;8.10;7.33;;;16.50;95.00;;;16.83;47.00;102493.34;4947012;28;97758;-60
2022/04/16 00:25:38;;;;;;;3.07;2.67;;;16.40;94.30;;;16.78;47.41;102495.28;4931750;28;114261;-60
2022/04/16 00:28:04;;;;;;;3.10;2.80;;;16.30;95.30;;;16.71;47.79;102496.41;4933038;28;97847;-60
2022/04/16 00:30:37;;;;;;;3.03;2.60;;;16.10;95.40;;;16.66;47.75;102490.31;4930380;28;97507;-60
2022/04/16 00:33:05;;;;;;;7.50;6.77;;;16.10;96.10;;;16.63;47.78;102490.38;4933482;28;97695;-60
2022/04/16 00:35:31;;;;;;;3.03;2.67;;;16.00;95.60;;;16.59;47.93;102483.44;4931466;28;97324;-59
2022/04/16 00:37:57;;;;;;;6.13;5.37;;;16.00;95.90;;;16.55;47.83;102487.13;4935380;28;98174;-59
2022/04/16 00:40:23;;;;;;;4.47;4.03;;;15.90;95.20;;;16.51;48.08;102485.47;4944096;28;104578;-59
2022/04/16 00:42:50;;;;;;;4.73;4.33;;;15.90;95.90;;;16.40;48.44;102492.94;4933206;28;117111;-60
2022/04/16 00:45:16;;;;;;;7.67;6.87;;;15.70;95.90;;;16.35;48.20;102495.75;4935020;28;96797;-66
2022/04/16 00:47:42;;;;;;;7.30;6.60;;;15.60;95.90;;;16.31;48.49;102492.28;4931094;28;98025;-59
2022/04/16 00:50:10;;;;;;;8.33;7.53;;;15.60;95.80;;;16.28;48.24;102495.03;4937418;28;97275;-58
2022/04/16 00:52:44;;;;;;;3.97;3.67;;;15.60;95.70;;;16.23;48.81;102496.97;4922104;28;102595;-59
2022/04/16 00:55:14;;;;;;;3.77;3.47;;;15.50;96.30;;;16.16;49.01;102484.75;4922679;28;98161;-59
2022/04/16 00:57:42;;;;;;;2.50;2.30;;;15.40;96.70;;;16.11;48.95;102486.69;4903867;28;96835;-60
2022/04/16 01:00:12;;;;;;;3.27;3.03;;;15.40;97.00;;;16.13;48.81;102495.50;4931875;28;97276;-60
2022/04/16 01:02:38;;;;;;;8.03;7.23;;;15.50;97.00;;;16.10;48.92;102500.94;4930581;28;97331;-60
2022/04/16 01:05:06;;;;;;;2.57;2.37;;;15.40;96.40;;;16.11;49.00;102502.66;4933026;28;97093;-59
2022/04/16 01:07:32;;;;;;;2.70;2.50;;;15.50;96.80;;;16.11;49.11;102492.00;4924608;28;99303;-59
2022/04/16 01:09:58;;;;;;;3.53;3.23;;;15.50;96.70;;;16.12;49.08;102493.75;4938219;28;97635;-60
2022/04/16 01:12:24;;;;;;;2.40;2.20;;;15.50;96.70;;;16.14;48.99;102507.88;4937028;28;98258;-59
2022/04/16 01:14:50;;;;;;;4.00;2.97;;;15.60;97.00;;;16.18;48.80;102498.88;4939807;28;97417;-60
2022/04/16 01:17:17;;;;;;;4.93;4.10;;;15.60;96.40;;;16.17;48.85;102501.59;4930805;28;97110;-66
2022/04/16 01:19:43;;;;;;;3.30;3.00;;;15.60;96.00;;;16.18;48.75;102498.00;4938821;28;97303;-60
2022/04/16 01:22:12;;;;;;;3.17;2.87;;;15.60;96.20;;;16.18;49.02;102496.22;4941086;28;97712;-59
2022/04/16 01:24:43;;;;;;;4.50;4.10;;;15.60;96.70;;;16.18;48.86;102504.22;4935222;28;96982;-60
2022/04/16 01:27:10;;;;;;;3.67;3.37;;;15.60;96.10;;;16.20;48.81;102502.41;4932269;28;97359;-59
2022/04/16 01:29:37;;;;;;;3.33;2.77;;;15.60;95.90;;;16.19;48.83;102495.31;4928048;28;99084;-59
2022/04/16 01:32:03;;;;;;;9.27;8.30;;;15.60;95.90;;;16.16;48.32;102499.84;4925842;28;97060;-59
2022/04/16 01:34:29;;;;;;;7.00;6.40;;;15.50;95.60;;;16.13;48.99;102507.94;4932587;28;97599;-60
2022/04/16 01:36:57;;;;;;;3.20;2.90;;;15.40;96.20;;;16.10;48.88;102500.94;4938391;28;97626;-60
2022/04/16 01:39:23;;;;;;;6.90;5.20;;;15.40;96.70;;;16.06;49.20;102505.47;4933453;28;96835;-60
2022/04/16 01:41:49;;;;;;;8.27;7.27;;;15.30;96.30;;;16.04;49.01;102503.75;4936993;28;97450;-60
2022/04/16 01:44:15;;;;;;;2.50;2.30;;;15.30;96.20;;;16.01;49.40;102503.84;4937625;28;96871;-59
2022/04/16 01:46:41;;;;;;;3.73;3.43;;;15.30;97.30;;;16.02;49.17;102509.13;4929541;28;98408;-59
2022/04/16 01:49:09;;;;;;;6.07;5.53;;;15.30;96.30;;;16.01;49.25;102517.16;4942091;28;97233;-59
2022/04/16 01:51:36;;;;;;;6.57;5.33;;;15.30;96.10;;;15.95;49.27;102518.22;4931496;28;97872;-59
2022/04/16 01:54:05;;;;;;;3.10;2.80;;;15.20;96.50;;;15.94;49.55;102521.78;4939550;28;96980;-60
2022/04/16 01:56:31;;;;;;;7.13;5.97;;;15.20;97.70;;;15.95;49.29;102514.69;4892239;28;98388;-58
2022/04/16 01:58:57;;;;;;;4.00;3.63;;;15.20;96.60;;;15.96;49.27;102519.09;4950051;28;97255;-60
2022/04/16 02:01:23;;;;;;;3.27;2.97;;;15.30;96.80;;;15.99;49.40;102519.88;4937541;28;100115;-58
2022/04/16 02:03:49;;;;;;;3.50;3.20;;;15.30;96.70;;;16.02;49.13;102518.91;4940842;28;97026;-59
2022/04/16 02:06:17;;;;;;;4.13;3.57;;;15.40;96.70;;;15.98;49.03;102522.56;4938616;28;97586;-58
2022/04/16 02:08:44;;;;;;;3.43;3.13;;;15.30;96.30;;;15.98;49.47;102522.56;4934227;28;99988;-58
2022/04/16 02:11:09;;;;;;;4.17;3.43;;;15.20;96.90;;;15.99;49.42;102524.31;4935707;28;97793;-58
2022/04/16 02:13:36;;;;;;;3.70;3.13;;;15.30;96.70;;;15.98;49.16;102530.56;4927484;28;117739;-58
2022/04/16 02:16:02;;;;;;;9.17;8.10;;;15.30;96.20;;;15.97;49.09;102534.13;4931532;28;98824;-59
2022/04/16 02:18:27;;;;;;;9.10;7.73;;;15.30;95.90;;;15.91;49.30;102534.28;4929711;28;97427;-60
2022/04/16 02:20:53;;;;;;;4.47;4.03;;;15.10;96.30;;;15.92;49.55;102541.38;4931732;28;98513;-60
2022/04/16 02:23:19;;;;;;;3.23;2.93;;;15.20;96.70;;;15.91;49.30;102536.94;4936754;28;98143;-59
2022/04/16 02:25:45;;;;;;;3.50;3.20;;;15.20;96.70;;;15.90;49.27;102551.19;4932764;28;98909;-59
2022/04/16 02:28:11;;;;;;;8.53;7.73;;;15.20;96.40;;;15.89;49.32;102544.13;4934370;28;98229;-58
2022/04/16 02:30:37;;;;;;;3.77;3.47;;;15.10;96.20;;;15.88;49.55;102545.03;4927516;28;121381;-59
2022/04/16 02:33:06;;;;;;;3.67;3.33;;;15.10;96.60;;;15.85;49.37;102553.09;4932788;28;97250;-59
2022/04/16 02:35:32;;;;;;;10.73;9.70;;;15.10;96.80;;;15.77;48.47;102556.00;4928828;28;97368;-59
2022/04/16 02:37:58;;;;;;;3.33;3.03;;;15.00;96.10;;;15.70;49.89;102555.28;4936256;28;97024;-60
2022/04/16 02:40:24;;;;;;;6.30;4.83;;;14.80;97.70;;;15.72;49.74;102547.25;4928568;28;119609;-59
2022/04/16 02:42:49;;;;;;;11.10;10.00;;;14.90;97.10;;;15.66;48.50;102545.63;4935171;28;97440;-59
2022/04/16 02:48:00;;;;;;;8.10;7.40;;;14.80;96.90;;;15.61;49.92;102552.84;4931250;28;96913;-60
2022/04/16 02:50:28;;;;;;;4.33;3.30;;;14.80;97.10;;;15.62;49.87;102553.72;4929258;28;97117;-59
2022/04/16 02:52:55;;;;;;;4.03;3.67;;;14.80;97.10;;;15.61;50.16;102558.16;4930806;28;97315;-59
2022/04/16 02:55:22;;;;;;;4.77;3.70;;;14.80;97.40;;;15.58;50.08;102554.69;4932486;28;97414;-60
2022/04/16 02:57:49;;;;;;;3.63;3.33;;;14.70;96.90;;;15.58;50.10;102555.56;4937625;28;97100;-60
2022/04/16 03:00:16;;;;;;;6.77;5.63;;;14.70;97.70;;;15.61;50.30;102555.50;4934903;28;96917;-60
2022/04/16 03:02:42;;;;;;;2.80;2.60;;;14.80;97.10;;;15.65;49.95;102561.63;4949570;28;100710;-59
2022/04/16 03:05:09;;;;;;;3.60;2.90;;;14.90;97.50;;;15.65;50.06;102557.19;4939211;28;97479;-59
2022/04/16 03:07:43;;;;;;;3.20;2.97;;;14.90;97.30;;;15.68;49.96;102561.56;4945404;28;97360;-59
2022/04/16 03:10:16;;;;;;;3.67;2.93;;;14.90;96.90;;;15.67;49.95;102558.03;4931073;28;99749;-59
2022/04/16 03:12:48;;;;;;;3.40;3.10;;;14.90;96.50;;;15.67;49.81;102565.13;4941025;28;102932;-60
2022/04/16 03:18:02;;;;;;;6.57;4.83;;;14.80;96.90;;;15.63;50.00;102560.81;4956594;28;97433;-60
2022/04/16 03:20:29;;;;;;;4.27;3.80;;;14.80;96.90;;;15.58;49.81;102558.22;4957372;28;97294;-60
2022/04/16 03:22:56;;;;;;;3.03;2.83;;;14.70;97.00;;;15.59;50.13;102562.66;4971278;28;98403;-59
2022/04/16 03:25:22;;;;;;;5.17;4.77;;;14.70;97.40;;;15.59;50.15;102567.97;4968355;28;97022;-59
2022/04/16 03:27:48;;;;;;;4.37;3.97;;;14.70;96.80;;;15.60;49.99;102559.09;4972148;28;97609;-59
2022/04/16 03:30:14;;;;;;;3.90;3.60;;;14.80;97.30;;;15.60;49.77;102564.41;4961219;28;102396;-60
2022/04/16 03:32:41;;;;;;;9.27;8.37;;;14.80;97.00;;;15.55;48.67;102566.28;4957693;28;97089;-60
2022/04/16 03:35:08;;;;;;;3.30;3.07;;;14.70;96.00;;;15.51;50.26;102564.63;4959111;28;98326;-60
2022/04/16 03:37:35;;;;;;;3.43;3.10;;;14.60;97.70;;;15.46;50.43;102566.50;4971557;28;97183;-60
2022/04/16 03:40:02;;;;;;;7.03;6.33;;;14.50;97.90;;;15.38;50.30;102569.38;4960264;28;102415;-60
2022/04/16 03:42:28;;;;;;;5.57;4.97;;;14.40;97.30;;;15.35;50.70;102568.59;4955497;28;97016;-60
2022/04/16 03:44:54;;;;;;;5.00;4.60;;;14.30;97.70;;;15.32;50.59;102573.97;4952942;28;97051;-60
2022/04/16 03:47:19;;;;;;;5.67;5.17;;;14.30;97.70;;;15.31;50.61;102577.53;4950575;28;96986;-60
2022/04/16 03:49:45;;;;;;;5.20;4.70;;;14.40;97.60;;;15.30;50.61;102570.47;4953303;28;115601;-60
2022/04/16 03:52:11;;;;;;;2.87;2.60;;;14.40;97.30;;;15.32;50.53;102573.97;4959411;28;122473;-60
2022/04/16 04:00:09;;;;;;;4.83;4.20;;;14.40;96.70;;;15.30;50.56;102575.81;4953530;28;96893;-60
2022/04/16 04:02:36;;;;;;;5.43;4.90;;;14.40;97.40;;;15.28;50.63;102572.31;4957486;28;97173;-60
2022/04/16 04:05:03;;;;;;;3.10;2.80;;;14.40;97.40;;;15.28;50.79;102567.88;4952554;28;96573;-60
2022/04/16 04:07:29;;;;;;;3.10;2.90;;;14.40;97.80;;;15.32;50.46;102573.97;4953254;28;96908;-60
2022/04/16 04:09:57;;;;;;;3.20;2.90;;;14.40;97.60;;;15.34;50.32;102578.38;4934332;28;97566;-60
2022/04/16 04:12:27;;;;;;;3.97;3.57;;;14.50;97.70;;;15.39;50.31;102575.59;4941482;28;97365;-59
2022/04/16 04:14:53;;;;;;;4.87;4.40;;;14.60;97.90;;;15.43;50.01;102575.44;4951832;28;97355;-60
2022/04/16 04:17:19;;;;;;;2.60;2.40;;;14.70;97.50;;;15.47;49.95;102578.91;4956832;28;96942;-60
2022/04/16 04:19:46;;;;;;;3.37;2.97;;;14.70;98.00;;;15.53;49.98;102576.09;4961459;28;102583;-60
2022/04/16 04:22:16;;;;;;;3.87;3.00;;;14.80;97.50;;;15.62;49.92;102578.56;4951710;28;98150;-60
2022/04/16 04:24:45;;;;;;;3.07;2.40;;;14.90;96.90;;;15.67;49.78;102586.41;4947505;28;97138;-60
2022/04/16 04:27:15;;;;;;;2.90;2.60;;;15.00;97.60;;;15.68;49.75;102583.72;4942207;28;98099;-60
2022/04/16 04:29:41;;;;;;;2.77;2.43;;;15.10;97.50;;;15.73;49.55;102592.44;4952546;28;100547;-60
2022/04/16 04:32:07;;;;;;;2.60;2.30;;;15.10;97.70;;;15.83;49.17;102597.53;4961768;28;96763;-60
2022/04/16 04:34:33;;;;;;;2.70;2.47;;;15.30;97.70;;;15.96;48.65;102590.94;4951457;28;97657;-60
2022/04/16 04:36:59;;;;;;;2.80;2.60;;;15.50;97.20;;;16.05;48.45;102593.34;4962251;28;97097;-60
2022/04/16 04:39:25;;;;;;;3.07;2.57;;;15.70;96.40;;;16.12;48.30;102600.25;4959105;28;98011;-60
2022/04/16 04:41:51;;;;;;;2.80;2.60;;;15.80;96.70;;;16.19;48.20;102606.25;4959288;28;107390;-60
2022/04/16 04:44:16;;;;;;;2.43;2.20;;;15.90;96.20;;;16.28;47.99;102606.88;4959476;28;97317;-62
2022/04/16 04:46:42;;;;;;;4.33;3.97;;;16.00;96.50;;;16.43;47.59;102610.03;4955460;28;97855;-60
2022/04/16 04:49:09;;;;;;;5.43;4.77;;;16.20;95.30;;;16.54;47.38;102613.25;4962660;28;108438;-60
2022/04/16 04:51:39;;;;;;;2.50;2.30;;;16.40;95.20;;;16.64;47.13;102609.41;4959905;28;111019;-60
2022/04/16 04:54:06;;;;;;;2.23;2.03;;;16.50;95.50;;;16.75;46.82;102612.63;4960602;28;97796;-60
2022/04/16 04:56:32;;;;;;;2.60;2.40;;;16.70;94.90;;;16.79;46.50;102616.09;4957836;28;97217;-60
2022/04/16 04:59:00;;;;;;;2.87;2.57;;;16.70;95.10;;;16.87;46.70;102612.25;4962639;28;98996;-60
2022/04/16 05:01:26;;;;;;;2.47;2.20;;;16.80;94.90;;;16.99;46.07;102620.78;4915673;28;99767;-60
2022/04/16 05:03:52;;;;;;;3.07;2.70;;;16.90;94.60;;;17.05;46.04;102621.44;4959480;28;98956;-60
2022/04/16 05:06:18;;;;;;;2.60;2.40;;;17.00;93.90;;;17.10;45.91;102624.00;4958546;28;97373;-61
2022/04/16 05:08:44;;;;;;;3.33;2.47;;;17.10;94.20;;;17.18;45.70;102627.28;4962898;28;102710;-60
2022/04/16 05:11:10;;;;;;;2.30;2.10;;;17.20;93.90;;;17.26;45.36;102630.56;4961392;28;97780;-60
2022/04/16 05:13:36;;;;;;;3.80;2.80;;;17.30;93.90;;;17.33;45.23;102631.22;4957683;28;97292;-60
2022/04/16 05:16:02;;;;;;;2.77;2.40;;;17.40;93.70;;;17.37;45.08;102628.44;4959144;28;96874;-60
2022/04/16 05:18:28;;;;;;;3.20;2.83;;;17.50;93.50;;;17.46;44.96;102632.56;4959687;28;97543;-60
2022/04/16 05:20:54;;;;;;;2.87;2.60;;;17.60;93.30;;;17.49;44.69;102628.00;4958994;28;115801;-60
2022/04/16 05:23:20;;;;;;;2.80;2.60;;;17.60;93.10;;;17.54;44.73;102636.75;4956894;28;96965;-60
2022/04/16 05:25:46;;;;;;;2.93;2.73;;;17.70;93.10;;;17.58;44.78;102644.66;4957636;28;97436;-60
2022/04/16 05:28:11;;;;;;;3.13;2.50;;;17.70;93.00;;;17.60;44.53;102640.13;4962288;28;98863;-60
2022/04/16 05:30:48;;;;;;;3.30;3.10;;;17.70;92.90;;;17.66;44.43;102645.28;4956475;28;97406;-60
2022/04/16 05:36:00;;;;;;;3.13;2.83;;;17.80;92.60;;;17.71;44.20;102654.03;4956414;28;96947;-60
2022/04/16 05:38:25;;;;;;;2.60;2.40;;;17.90;92.40;;;17.72;44.06;102653.09;4953992;28;97240;-60
2022/04/16 05:40:51;;;;;;;2.93;2.63;;;17.80;92.50;;;17.75;44.20;102658.31;4958776;28;104886;-60
2022/04/16 05:43:17;;;;;;;3.67;3.10;;;17.90;92.40;;;17.76;43.94;102662.72;4960069;28;97032;-65
2022/04/16 05:45:44;;;;;;;3.03;2.83;;;17.90;92.40;;;17.77;44.13;102659.13;4961078;28;97553;-59
2022/04/16 05:48:10;;;;;;;3.47;3.13;;;17.90;92.40;;;17.72;43.90;102655.75;4960548;28;97408;-60
2022/04/16 05:50:37;;;;;;;3.20;2.90;;;17.90;92.30;;;17.76;43.85;102663.59;4955828;28;98118;-60
2022/04/16 05:53:06;;;;;;;3.77;3.33;;;17.90;92.20;;;17.78;43.82;102666.22;4955114;28;96785;-59
2022/04/16 05:55:34;;;;;;;3.10;2.73;;;17.90;92.30;;;17.80;43.89;102672.41;4957479;28;96960;-59
2022/04/16 05:58:00;;;;;;;3.37;3.07;;;18.00;92.20;;;17.84;43.92;102671.38;4962494;28;98000;-58
2022/04/16 06:00:27;;;;;;;3.83;3.33;;;18.00;92.20;;;17.83;43.62;102674.97;4956913;28;98427;-58
2022/04/16 06:02:53;;;;;;;3.07;2.87;;;18.00;92.10;;;17.82;43.60;102679.44;4961410;28;97059;-56
2022/04/16 06:05:21;;;;;;;3.87;3.47;;;18.00;92.10;;;17.74;43.72;102685.94;4951896;28;97333;-60
2022/04/16 06:07:46;;;;;;;5.07;3.60;;;17.90;92.00;;;17.64;44.10;102680.00;4958272;28;98575;-60
2022/04/16 06:10:12;;;;;;;5.03;4.00;;;17.90;92.00;;;17.63;44.13;102688.91;4955660;28;118609;-58
2022/04/16 06:12:38;;;;;;;5.10;4.60;;;17.90;92.00;;;17.73;43.98;102681.53;4951970;28;97189;-59
2022/04/16 06:15:04;;;;;;;5.27;4.00;;;17.90;92.00;;;17.69;43.94;102687.91;4958616;28;97093;-58
2022/04/16 06:17:30;;;;;;;3.97;3.63;;;18.00;92.00;;;17.72;43.90;102690.47;4957291;28;97556;-58
2022/04/16 06:19:56;;;;;;;4.30;3.90;;;17.90;91.90;;;17.65;43.92;102691.53;4957207;28;98682;-58
2022/04/16 06:22:22;;;;;;;4.83;4.23;;;18.00;91.90;;;17.73;44.08;102694.88;4955513;28;96988;-59
2022/04/16 06:24:48;;;;;;;4.67;4.17;;;17.90;92.00;;;17.72;43.94;102696.66;4961031;28;97294;-58
2022/04/16 06:27:14;;;;;;;5.13;4.63;;;18.00;91.90;;;17.63;44.00;102699.59;4960647;28;124521;-59
2022/04/16 06:29:39;;;;;;;4.73;4.33;;;17.90;92.30;;;17.74;43.73;102707.28;4953248;28;98492;-60
2022/04/16 06:32:06;;;;;;;5.23;4.33;;;17.90;91.90;;;17.73;43.79;102689.53;4959605;28;101963;-59
2022/04/16 06:34:32;;;;;;;5.70;4.43;;;17.90;91.90;;;17.64;44.31;102688.00;4959135;28;96969;-60
2022/04/16 06:36:59;;;;;;;6.03;5.17;;;17.90;91.90;;;17.63;44.35;102693.38;4947777;28;97441;-60
2022/04/16 06:39:25;;;;;;;5.47;4.87;;;17.90;92.00;;;17.59;44.24;102692.63;4958921;28;97312;-60
2022/04/16 06:41:51;;;;;;;5.00;4.43;;;17.90;91.90;;;17.68;43.98;102699.47;4959582;28;97523;-58
2022/04/16 06:44:17;;;;;;;4.80;4.30;;;18.00;91.90;;;17.65;44.18;102696.88;4958252;28;98939;-62
2022/04/16 06:46:42;;;;;;;4.70;4.30;;;17.90;91.90;;;17.69;44.01;102701.25;4952499;28;113113;-57
2022/04/16 06:49:08;;;;;;;4.33;3.93;;;18.00;91.90;;;17.67;43.82;102700.38;4959501;28;97075;-58
2022/04/16 06:51:34;;;;;;;4.60;4.10;;;17.90;91.80;;;17.61;44.17;102705.91;4955064;28;96896;-58
2022/04/16 06:54:00;;;;;;;4.73;4.33;;;17.90;91.90;;;17.65;44.04;102704.88;4962042;28;97048;-58
2022/04/16 06:56:26;;;;;;;5.07;4.00;;;18.00;91.90;;;17.60;44.06;102709.50;4956992;28;97371;-58
2022/04/16 06:58:51;;;;;;;5.57;4.70;;;17.90;91.90;;;17.64;44.05;102701.34;4961163;28;97099;-58
2022/04/16 07:01:17;;;;;;;5.20;4.70;;;17.90;91.90;;;17.57;44.44;102698.94;4955003;28;97106;-65
2022/04/16 07:03:43;;;;;;;5.30;4.40;;;17.90;91.90;;;17.62;44.10;102705.00;4960331;28;96857;-59
2022/04/16 07:06:09;;;;;;;4.70;4.23;;;17.90;91.90;;;17.68;44.18;102713.72;4958685;28;97487;-58
2022/04/16 07:08:35;;;;;;;4.57;4.10;;;18.00;91.90;;;17.67;44.10;102711.06;4964838;28;97359;-59
2022/04/16 07:11:00;;;;;;;5.93;4.63;;;18.00;91.90;;;17.74;43.92;102701.94;4965335;28;97135;-59
2022/04/16 07:13:26;;;;;;;4.67;4.27;;;17.90;91.80;;;17.75;43.84;102709.03;4956123;28;97325;-59
2022/04/16 07:15:52;;;;;;;5.37;4.80;;;18.00;91.80;;;17.73;43.93;102710.88;4952168;28;97376;-59
2022/04/16 07:18:18;;;;;;;5.17;4.67;;;18.00;91.80;;;17.82;43.73;102707.91;4954341;28;114527;-61
2022/04/16 07:20:44;;;;;;;4.67;4.23;;;18.00;91.70;;;17.83;43.86;102704.31;4964646;28;97139;-60
2022/04/16 07:23:09;;;;;;;6.87;5.60;;;18.10;91.70;;;17.76;43.74;102710.78;4953951;28;97644;-59
2022/04/16 07:25:35;;;;;;;4.93;4.10;;;18.10;91.70;;;17.72;43.90;102714.47;4947098;28;97557;-59
2022/04/16 07:28:35;;;;;;;4.40;4.00;;;18.00;91.60;;;17.75;43.82;102703.69;4963438;28;97908;-60
2022/04/16 07:31:00;;;;;;;5.17;4.47;;;18.00;91.70;;;17.71;44.12;102702.06;4909531;28;100448;-61
2022/04/16 07:33:29;;;;;;;4.83;4.33;;;18.00;91.70;;;17.72;43.99;102698.47;4920184;28;97978;-61
2022/04/16 07:35:55;;;;;;;5.00;4.47;;;18.00;91.70;;;17.78;43.86;102708.91;4951151;28;127367;-61
2022/04/16 07:38:22;;;;;;;4.90;4.40;;;18.00;91.70;;;17.75;43.78;102706.38;4963695;28;96929;-61
2022/04/16 07:40:49;;;;;;;5.30;4.60;;;18.00;91.70;;;17.80;43.87;102705.31;4937318;28;97171;-60
2022/04/16 07:43:18;;;;;;;5.03;4.23;;;18.10;91.60;;;17.70;44.20;102705.66;4938121;28;97381;-60
2022/04/16 07:45:44;;;;;;;5.83;4.90;;;18.00;91.60;;;17.62;44.10;102703.19;4960355;28;101975;-57
2022/04/16 07:48:10;;;;;;;5.57;4.60;;;18.00;91.70;;;17.71;43.81;102702.06;4959239;28;97097;-58
2022/04/16 07:50:36;;;;;;;5.83;4.80;;;18.00;91.70;;;17.69;44.05;102709.25;4955509;28;97472;-59
2022/04/16 07:53:02;;;;;;;5.07;4.57;;;18.00;91.70;;;17.66;43.96;102714.66;4954573;28;97237;-59
2022/04/16 07:55:31;;;;;;;4.83;4.37;;;18.00;91.70;;;17.65;43.94;102707.53;4917909;28;97948;-59
2022/04/16 07:58:05;;;;;;;4.97;4.47;;;18.00;91.70;;;17.72;43.79;102698.47;4930120;28;97047;-59
2022/04/16 08:00:31;;;;;;;5.60;4.53;;;18.00;91.60;;;17.73;43.96;102701.09;4941949;28;96992;-57
2022/04/16 08:02:56;;;;;;;5.13;4.30;;;18.00;91.60;;;17.76;43.90;102702.78;4953970;28;98706;-59
2022/04/16 08:05:22;;;;;;;6.13;4.83;;;18.00;91.50;;;17.75;43.72;102695.69;4951691;28;112534;-59
2022/04/16 08:07:49;;;;;;;5.53;5.03;;;18.00;91.50;;;17.72;43.65;102698.47;4956456;28;116500;-59
2022/04/16 08:10:15;;;;;;;5.93;5.33;;;18.00;91.60;;;17.72;43.65;102703.81;4960315;28;97388;-59
2022/04/16 08:12:42;;;;;;;5.20;4.70;;;18.00;91.40;;;17.76;43.81;102706.31;4958714;28;96872;-59
2022/04/16 08:15:10;;;;;;;5.60;5.10;;;18.00;91.40;;;17.81;43.38;102703.50;4942943;28;97995;-59
2022/04/16 08:17:37;;;;;;;5.63;5.13;;;18.10;91.30;;;17.74;43.69;102696.63;4936505;28;98541;-59
2022/04/16 08:20:06;;;;;;;5.90;5.30;;;18.00;91.30;;;17.74;43.82;102697.47;4937567;28;97414;-58
2022/04/16 08:22:34;;;;;;;5.90;5.30;;;18.00;91.40;;;17.76;43.80;102700.09;4949161;28;99920;-59
2022/04/16 08:27:47;;;;;;;7.07;5.10;;;18.10;91.20;;;17.79;43.44;102695.56;4937975;28;99872;-59
2022/04/16 08:30:18;;;;;;;5.23;4.73;;;18.10;91.20;;;17.82;43.27;102705.25;4915778;28;97191;-59
2022/04/16 08:32:45;;;;;;;5.30;4.57;;;18.10;91.20;;;17.78;43.60;102703.59;4905057;28;97383;-59
2022/04/16 08:35:15;;;;;;;4.77;4.33;;;18.10;91.20;;;17.70;43.74;102703.00;4917212;28;98482;-59
2022/04/16 08:37:41;;;;;;;5.47;4.93;;;18.00;91.20;;;17.58;43.99;102711.34;4937235;28;97390;-59
2022/04/16 08:40:12;;;;;;;5.83;4.80;;;18.00;91.20;;;17.62;43.69;102719.19;4959761;28;99099;-58
2022/04/16 08:42:40;;;;;;;5.27;4.70;;;18.00;91.20;;;17.60;43.83;102720.19;4958455;28;97526;-59
2022/04/16 08:45:08;;;;;;;5.03;4.53;;;17.90;91.20;;;17.71;43.72;102723.41;4955908;28;97876;-59
2022/04/16 08:47:35;;;;;;;5.20;4.63;;;18.00;91.20;;;17.64;43.46;102724.50;4934281;28;98331;-59
2022/04/16 08:50:05;;;;;;;5.60;4.47;;;17.90;91.10;;;17.60;43.53;102722.84;4944168;28;97635;-59
2022/04/16 08:52:34;;;;;;;6.73;4.90;;;18.00;91.10;;;17.71;43.15;102724.28;4970094;28;97473;-59
2022/04/16 08:55:03;;;;;;;5.20;4.70;;;18.00;91.00;;;17.74;43.40;102728.66;4961826;28;96807;-59
2022/04/16 08:57:29;;;;;;;4.93;4.23;;;18.00;91.00;;;17.59;43.31;102729.97;4936710;28;99174;-59
2022/04/16 08:59:58;;;;;;;4.77;4.23;;;17.90;90.90;;;17.77;42.98;102733.88;4942654;28;97913;-59
2022/04/16 09:02:28;;;;;;;4.73;4.03;;;18.00;90.90;;;17.85;43.08;102731.84;4909076;28;97518;-59
2022/04/16 09:05:07;;;;;;;4.53;4.13;;;18.10;90.80;;;17.79;43.19;102724.00;4927206;28;96928;-60
2022/04/16 09:07:47;;;;;;;5.43;4.43;;;18.10;90.80;;;17.71;42.87;102723.41;4948821;28;98462;-60
2022/04/16 09:10:13;;;;;;;4.23;3.83;;;18.00;90.70;;;17.71;42.74;102728.75;4960432;28;97610;-59
2022/04/16 09:12:42;;;;;;;4.67;4.13;;;18.00;90.60;;;17.78;42.78;102722.28;4914057;28;96976;-57
2022/04/16 09:15:16;;;;;;;3.50;3.20;;;18.00;90.60;;;17.63;42.92;102714.72;4936000;28;97368;-58
2022/04/16 09:17:42;;;;;;;3.97;3.57;;;18.00;90.60;;;17.58;42.75;102722.03;4945000;28;96849;-58
2022/04/16 09:20:14;;;;;;;3.70;3.40;;;18.00;90.40;;;17.70;42.68;102733.22;4942169;28;97300;-59
2022/04/16 09:22:48;;;;;;;3.63;3.33;;;18.00;90.50;;;17.74;42.95;102729.50;4928561;28;97705;-58
2022/04/16 09:25:17;;;;;;;3.57;3.13;;;18.00;90.50;;;17.76;42.60;102716.97;4920356;28;96843;-57
2022/04/16 09:27:49;;;;;;;3.47;3.17;;;18.10;90.40;;;17.90;42.03;102723.66;4925158;28;102436;-58
2022/04/16 09:30:31;;;;;;;4.00;3.03;;;18.10;90.10;;;17.95;42.37;102721.72;4929137;28;97286;-58
2022/04/16 09:32:59;;;;;;;3.40;3.10;;;18.10;90.30;;;17.87;42.47;102719.31;4924640;28;97511;-58
2022/04/16 09:35:36;;;;;;;3.30;2.70;;;18.10;90.70;;;17.73;42.43;102721.56;4925245;28;97694;-58
2022/04/16 09:38:06;;;;;;;3.00;2.70;;;18.00;90.30;;;17.73;42.54;102718.88;4930524;28;98036;-58
2022/04/16 09:40:34;;;;;;;3.07;2.70;;;18.10;90.20;;;17.74;42.33;102712.63;4920519;28;102345;-58
2022/04/16 09:43:04;;;;;;;2.50;2.30;;;18.00;90.10;;;17.77;42.66;102712.53;4929621;28;97868;-59
2022/04/16 09:45:32;;;;;;;2.77;2.30;;;18.00;90.20;;;17.80;42.19;102720.44;4920204;28;97871;-58
2022/04/16 09:47:59;;;;;;;2.33;2.13;;;18.10;90.20;;;17.90;42.23;102707.66;4927774;28;98159;-59
2022/04/16 09:50:29;;;;;;;2.43;2.00;;;18.10;90.10;;;17.92;40.71;102701.31;4919489;28;97832;-58
2022/04/16 09:53:02;;;;;;;2.27;2.07;;;18.20;88.40;;;17.72;42.07;102714.47;4923185;28;97952;-58
2022/04/16 09:55:29;;;;;;;1.87;1.77;;;18.10;90.00;;;17.73;42.54;102714.44;4914973;28;98126;-59
2022/04/16 09:58:05;;;;;;;3.40;2.37;;;18.10;90.10;;;17.76;42.42;102710.78;4883734;28;97434;-58
2022/04/16 10:00:41;;;;;;;1.93;1.63;;;18.10;90.00;;;17.64;41.90;102712.00;4918872;28;97912;-60
2022/04/16 10:03:08;;;;;;;2.17;1.87;;;18.00;89.10;;;17.63;41.79;102714.72;4927116;28;98117;-59
2022/04/16 10:05:34;;;;;;;2.40;1.90;;;18.00;89.40;;;17.73;41.67;102711.75;4921625;28;99911;-60
2022/04/16 10:08:00;;;;;;;2.03;1.83;;;18.00;89.30;;;17.73;42.08;102721.56;4929153;28;100119;-60
2022/04/16 10:10:40;;;;;;;2.27;1.57;;;18.10;89.50;;;17.87;41.39;102702.41;4922957;28;97428;-60
2022/04/16 10:13:10;;;;;;;2.10;1.83;;;18.10;88.40;;;17.93;41.80;102702.19;4931016;28;97467;-61
2022/04/16 10:16:16;;;;;;;1.60;1.50;;;18.10;89.20;;;17.98;41.04;102711.81;4923406;28;97526;-60
2022/04/16 10:18:44;;;;;;;2.00;1.53;;;18.20;89.30;;;17.85;41.70;102699.81;4929223;28;102311;-61
2022/04/16 10:21:17;;;;;;;1.60;1.50;;;18.10;89.20;;;17.86;41.62;102712.22;4937434;28;97571;-61
2022/04/16 10:23:43;;;;;;;1.97;1.53;;;18.10;88.90;;;17.88;41.80;102713.03;4932513;28;97700;-61
2022/04/16 10:26:15;;;;;;;2.10;1.90;;;18.20;89.40;;;17.88;36.70;102702.34;4935814;28;97569;-58
2022/04/16 10:28:55;;;;;;;1.97;1.60;;;18.10;81.10;;;17.87;41.86;102713.09;4933690;28;97283;-61
2022/04/16 10:31:33;;;;;;;1.37;1.27;;;18.10;89.10;;;17.91;41.78;102720.94;4933729;28;98053;-58